createdAt,value
2019-03-03T00:01:02.678Z,96.30
2019-03-03T00:03:34.847Z,95.75
2019-03-03T00:06:06.419Z,95.31
2019-03-03T00:08:38.303Z,95.51
2019-03-03T00:11:11.024Z,95.77
2019-03-03T00:13:42.607Z,95.49
2019-03-03T00:16:14.341Z,95.05
2019-03-03T00:18:46.094Z,95.42
2019-03-03T00:21:19.215Z,94.72
2019-03-03T00:23:50.821Z,94.87
2019-03-03T00:26:22.959Z,95.97
2019-03-03T00:28:56.084Z,95.97
2019-03-03T00:31:36.833Z,95.06
2019-03-03T00:34:09.604Z,95.52
2019-03-03T00:36:58.628Z,95.52
2019-03-03T00:40:07.445Z,96.06
2019-03-03T00:42:56.721Z,97.08
2019-03-03T00:45:39.274Z,97.08
2019-03-03T00:48:41.703Z,96.30
2019-03-03T00:51:38.643Z,95.91
2019-03-03T00:54:29.950Z,96.34
2019-03-03T00:57:13.366Z,96.34
2019-03-03T00:59:57.325Z,96.05
2019-03-03T01:02:49.324Z,96.27
2019-03-03T01:05:46.397Z,96.27
2019-03-03T01:08:45.939Z,96.04
2019-03-03T01:11:44.188Z,96.20
2019-03-03T01:14:35.732Z,96.54
2019-03-03T01:17:25.382Z,96.08
2019-03-03T01:20:08.723Z,96.08
2019-03-03T01:23:14.260Z,96.51
2019-03-03T01:25:46.314Z,96.51
2019-03-03T01:28:17.841Z,95.38
2019-03-03T01:30:49.359Z,95.38
2019-03-03T01:33:21.079Z,95.59
2019-03-03T01:35:52.658Z,95.59
2019-03-03T01:38:24.418Z,94.80
2019-03-03T01:40:56.115Z,94.68
2019-03-03T01:43:27.856Z,94.68
2019-03-03T01:45:59.791Z,95.28
2019-03-03T01:48:31.683Z,95.28
2019-03-03T01:51:03.351Z,95.36
2019-03-03T01:53:34.870Z,95.36
2019-03-03T01:56:07.035Z,95.31
2019-03-03T01:58:38.673Z,95.31
2019-03-03T02:01:10.425Z,95.33
2019-03-03T02:03:42.288Z,95.33
2019-03-03T02:06:13.842Z,80.63
2019-03-03T02:08:45.673Z,80.73
2019-03-03T02:11:19.406Z,83.34
2019-03-03T02:13:51.108Z,86.62
2019-03-03T02:16:23.227Z,89.07
2019-03-03T02:18:54.591Z,92.00
2019-03-03T02:21:26.359Z,90.92
2019-03-03T02:23:57.755Z,85.32
2019-03-03T02:26:29.645Z,87.71
2019-03-03T02:29:01.448Z,90.34
2019-03-03T02:31:33.219Z,90.34
2019-03-03T02:34:05.024Z,89.77
2019-03-03T02:36:36.857Z,88.77
2019-03-03T02:39:16.131Z,84.86
2019-03-03T02:41:48.123Z,87.23
2019-03-03T02:44:20.079Z,86.66
2019-03-03T02:46:51.930Z,86.66
2019-03-03T02:49:23.622Z,85.30
2019-03-03T02:51:55.326Z,85.30
2019-03-03T02:54:27.154Z,85.45
2019-03-03T02:57:00.482Z,85.01
2019-03-03T02:59:32.990Z,85.01
2019-03-03T03:02:09.335Z,86.49
2019-03-03T03:04:41.050Z,88.63
2019-03-03T03:07:17.612Z,89.38
2019-03-03T03:10:14.144Z,88.37
2019-03-03T03:12:55.011Z,88.37
2019-03-03T03:15:43.871Z,92.00
2019-03-03T03:18:35.662Z,92.79
2019-03-03T03:21:35.410Z,94.52
2019-03-03T03:24:14.684Z,87.84
2019-03-03T03:26:53.728Z,87.84
2019-03-03T03:29:50.730Z,88.12
2019-03-03T03:32:51.556Z,91.90
2019-03-03T03:35:40.120Z,93.11
2019-03-03T03:38:25.772Z,89.66
2019-03-03T03:41:17.412Z,89.66
2019-03-03T03:44:13.951Z,92.96
2019-03-03T03:47:00.197Z,94.39
2019-03-03T03:49:39.543Z,94.39
2019-03-03T03:52:26.408Z,92.18
2019-03-03T03:55:19.784Z,92.18
2019-03-03T03:58:04.389Z,91.40
2019-03-03T04:00:53.590Z,92.61
2019-03-03T04:03:41.383Z,92.42
2019-03-03T04:06:20.796Z,92.42
2019-03-03T04:09:18.653Z,91.19
2019-03-03T04:12:11.867Z,90.88
2019-03-03T04:14:52.810Z,90.88
2019-03-03T04:17:48.900Z,87.24
2019-03-03T04:20:42.916Z,90.72
2019-03-03T04:23:31.724Z,89.67
2019-03-03T04:26:35.111Z,89.67
2019-03-03T04:29:26.740Z,90.76
2019-03-03T04:32:04.437Z,89.56
2019-03-03T04:34:56.058Z,87.33
2019-03-03T04:37:42.981Z,88.09
2019-03-03T04:40:22.687Z,88.09
2019-03-03T04:43:16.076Z,87.93
2019-03-03T04:45:59.249Z,87.00
2019-03-03T04:48:36.548Z,84.79
2019-03-03T04:51:29.735Z,86.11
2019-03-03T04:54:20.490Z,85.00
2019-03-03T04:57:09.098Z,85.00
2019-03-03T05:00:02.414Z,83.36
2019-03-03T05:02:44.017Z,83.36
2019-03-03T05:05:34.529Z,83.69
2019-03-03T05:08:28.482Z,82.58
2019-03-03T05:11:25.261Z,81.97
2019-03-03T05:14:11.833Z,81.55
2019-03-03T05:17:11.175Z,81.55
2019-03-03T05:19:47.731Z,82.42
2019-03-03T05:22:19.410Z,81.57
2019-03-03T05:24:51.203Z,81.57
2019-03-03T05:27:23.220Z,80.72
2019-03-03T05:29:54.875Z,80.72
2019-03-03T05:32:26.428Z,80.50
2019-03-03T05:34:58.062Z,80.89
2019-03-03T05:37:29.761Z,81.25
2019-03-03T05:40:01.630Z,81.25
2019-03-03T05:42:34.398Z,79.99
2019-03-03T05:45:07.458Z,80.34
2019-03-03T05:47:38.880Z,79.06
2019-03-03T05:50:10.249Z,79.06
2019-03-03T05:52:41.956Z,78.92
2019-03-03T05:55:13.296Z,79.77
2019-03-03T05:57:45.452Z,75.95
2019-03-03T06:00:17.073Z,77.72
2019-03-03T06:02:48.796Z,77.72
2019-03-03T06:05:20.551Z,75.04
2019-03-03T06:07:52.337Z,75.04
2019-03-03T06:10:28.163Z,74.68
2019-03-03T06:12:59.885Z,73.81
2019-03-03T06:15:32.692Z,71.87
2019-03-03T06:18:04.422Z,71.87
2019-03-03T06:20:36.207Z,70.30
2019-03-03T06:23:07.848Z,68.26
2019-03-03T06:25:39.562Z,67.28
2019-03-03T06:28:11.129Z,66.90
2019-03-03T06:30:42.514Z,69.01
2019-03-03T06:33:14.679Z,69.01
2019-03-03T06:35:46.255Z,67.38
2019-03-03T06:38:18.107Z,68.12
2019-03-03T06:40:49.744Z,68.26
2019-03-03T06:43:21.219Z,67.55
2019-03-03T06:45:52.823Z,69.08
2019-03-03T06:48:24.505Z,68.64
2019-03-03T06:50:56.424Z,66.31
2019-03-03T06:53:28.048Z,66.31
2019-03-03T06:55:59.524Z,66.00
2019-03-03T06:58:31.735Z,66.30
2019-03-03T07:01:03.339Z,67.07
2019-03-03T07:03:35.021Z,66.98
2019-03-03T07:06:06.593Z,66.98
2019-03-03T07:08:38.176Z,66.95
2019-03-03T07:11:10.172Z,67.51
2019-03-03T07:13:41.955Z,66.13
2019-03-03T07:16:13.846Z,65.94
2019-03-03T07:18:45.639Z,66.91
2019-03-03T07:21:19.116Z,65.91
2019-03-03T07:23:50.966Z,65.91
2019-03-03T07:26:22.586Z,64.99
2019-03-03T07:28:54.846Z,62.57
2019-03-03T07:31:26.629Z,62.57
2019-03-03T07:34:01.157Z,63.95
2019-03-03T07:36:32.919Z,63.95
2019-03-03T07:39:06.429Z,63.14
2019-03-03T07:41:39.678Z,62.42
2019-03-03T07:44:11.293Z,62.78
2019-03-03T07:46:43.147Z,62.44
2019-03-03T07:49:14.607Z,62.44
2019-03-03T07:51:46.705Z,61.14
2019-03-03T07:54:19.422Z,60.02
2019-03-03T07:56:50.980Z,60.02
2019-03-03T07:59:22.495Z,59.68
2019-03-03T08:01:54.236Z,59.68
2019-03-03T08:04:25.933Z,58.12
2019-03-03T08:06:58.209Z,58.12
2019-03-03T08:09:29.624Z,59.24
2019-03-03T08:12:01.352Z,59.24
2019-03-03T08:14:33.232Z,59.51
2019-03-03T08:17:04.808Z,57.45
2019-03-03T08:19:36.159Z,58.55
2019-03-03T08:22:07.899Z,57.89
2019-03-03T08:24:39.518Z,58.11
2019-03-03T08:27:11.375Z,58.49
2019-03-03T08:29:42.813Z,58.49
2019-03-03T08:32:14.259Z,58.57
2019-03-03T08:34:45.984Z,57.93
2019-03-03T08:37:17.636Z,58.09
2019-03-03T08:39:49.188Z,58.62
2019-03-03T08:42:39.949Z,58.63
2019-03-03T08:45:28.898Z,56.98
2019-03-03T08:48:05.470Z,57.45
2019-03-03T08:50:51.935Z,58.36
2019-03-03T08:53:41.442Z,58.36
2019-03-03T08:56:30.519Z,58.38
2019-03-03T08:59:12.183Z,58.61
2019-03-03T09:01:49.650Z,58.95
2019-03-03T09:04:41.927Z,58.46
2019-03-03T09:07:28.606Z,59.40
2019-03-03T09:10:25.051Z,59.40
2019-03-03T09:13:18.529Z,58.81
2019-03-03T09:16:12.250Z,59.06
2019-03-03T09:19:01.473Z,58.44
2019-03-03T09:21:57.608Z,58.44
2019-03-03T09:24:43.412Z,59.89
2019-03-03T09:27:33.481Z,59.89
2019-03-03T09:30:36.263Z,59.38
2019-03-03T09:33:25.283Z,59.30
2019-03-03T09:36:08.262Z,59.00
2019-03-03T09:39:07.343Z,59.81
2019-03-03T09:42:08.079Z,59.65
2019-03-03T09:44:49.119Z,59.69
2019-03-03T09:47:57.887Z,59.26
2019-03-03T09:50:47.340Z,60.45
2019-03-03T09:53:37.926Z,60.45
2019-03-03T09:56:31.834Z,60.50
2019-03-03T09:59:28.869Z,59.49
2019-03-03T10:02:18.491Z,59.49
2019-03-03T10:04:58.091Z,60.40
2019-03-03T10:08:00.774Z,60.40
2019-03-03T10:10:45.522Z,60.26
2019-03-03T10:13:36.038Z,61.07
2019-03-03T10:16:18.691Z,60.74
2019-03-03T10:19:09.335Z,61.94
2019-03-03T10:22:05.271Z,60.05
2019-03-03T10:24:59.455Z,60.05
2019-03-03T10:27:48.230Z,61.81
2019-03-03T10:30:31.816Z,61.29
2019-03-03T10:33:31.752Z,61.29
2019-03-03T10:36:16.582Z,61.28
2019-03-03T10:38:54.793Z,61.16
2019-03-03T10:41:45.326Z,60.72
2019-03-03T10:44:54.364Z,60.96
2019-03-03T10:47:40.891Z,60.88
2019-03-03T10:50:19.648Z,61.10
2019-03-03T10:53:02.791Z,61.10
2019-03-03T10:55:39.867Z,62.00
2019-03-03T10:58:39.604Z,61.66
2019-03-03T11:01:30.508Z,60.98
2019-03-03T11:04:12.060Z,60.98
2019-03-03T11:07:08.426Z,61.21
2019-03-03T11:09:53.346Z,61.21
2019-03-03T11:12:47.577Z,60.53
2019-03-03T11:15:40.945Z,60.89
2019-03-03T11:18:37.381Z,61.07
2019-03-03T11:21:31.872Z,60.57
2019-03-03T11:24:13.664Z,60.20
2019-03-03T11:27:10.606Z,59.82
2019-03-03T11:30:07.970Z,59.67
2019-03-03T11:36:13.695Z,58.57
2019-03-03T11:39:03.319Z,58.57
2019-03-03T11:41:55.455Z,58.47
2019-03-03T11:45:05.314Z,58.81
2019-03-03T11:48:06.553Z,58.40
2019-03-03T11:50:55.789Z,58.16
2019-03-03T11:53:54.925Z,58.16
2019-03-03T11:56:45.920Z,58.53
2019-03-03T11:59:35.284Z,58.53
2019-03-03T12:02:32.744Z,60.49
2019-03-03T12:05:35.525Z,60.49
2019-03-03T12:08:41.657Z,61.66
2019-03-03T12:11:32.733Z,66.66
2019-03-03T12:14:35.804Z,69.56
2019-03-03T12:17:35.921Z,73.33
2019-03-03T12:20:36.050Z,73.33
2019-03-03T12:23:29.631Z,75.11
2019-03-03T12:26:20.303Z,75.11
2019-03-03T12:29:09.048Z,76.23
2019-03-03T12:32:08.279Z,76.23
2019-03-03T12:35:05.324Z,76.14
2019-03-03T12:38:12.192Z,78.60
2019-03-03T12:41:03.218Z,78.60
2019-03-03T12:43:53.681Z,79.02
2019-03-03T12:46:44.309Z,78.38
2019-03-03T12:49:23.696Z,77.59
2019-03-03T12:52:26.016Z,77.59
2019-03-03T12:55:17.090Z,78.83
2019-03-03T12:58:00.859Z,78.29
2019-03-03T13:00:53.506Z,78.77
2019-03-03T13:03:48.549Z,80.40
2019-03-03T13:06:35.412Z,80.45
2019-03-03T13:09:25.103Z,77.47
2019-03-03T13:12:18.870Z,78.43
2019-03-03T13:15:15.023Z,78.43
2019-03-03T13:17:53.053Z,79.09
2019-03-03T13:20:40.488Z,77.09
2019-03-03T13:23:20.859Z,79.02
2019-03-03T13:26:04.804Z,79.02
2019-03-03T13:28:53.905Z,78.15
2019-03-03T13:31:42.720Z,79.39
2019-03-03T13:34:31.410Z,77.71
2019-03-03T13:37:13.030Z,77.04
2019-03-03T13:40:01.854Z,77.04
2019-03-03T13:42:50.921Z,79.40
2019-03-03T13:45:23.298Z,79.40
2019-03-03T13:47:55.102Z,82.31
2019-03-03T13:50:27.336Z,78.12
2019-03-03T13:52:58.778Z,78.96
2019-03-03T13:55:31.451Z,77.89
2019-03-03T13:58:03.218Z,79.56
2019-03-03T14:00:35.281Z,80.36
2019-03-03T14:03:10.287Z,80.24
2019-03-03T14:05:41.822Z,80.24
2019-03-03T14:08:13.598Z,77.73
2019-03-03T14:10:45.428Z,80.12
2019-03-03T14:13:18.199Z,80.12
2019-03-03T14:15:50.217Z,80.34
2019-03-03T14:18:21.806Z,80.34
2019-03-03T14:20:53.694Z,81.57
2019-03-03T14:23:25.086Z,80.39
2019-03-03T14:25:56.821Z,80.18
2019-03-03T14:28:28.332Z,81.20
2019-03-03T14:30:59.889Z,80.94
2019-03-03T14:33:32.097Z,79.54
2019-03-03T14:36:03.762Z,79.54
2019-03-03T14:38:35.261Z,79.56
2019-03-03T14:41:07.195Z,79.85
2019-03-03T14:43:39.241Z,79.91
2019-03-03T14:46:11.367Z,79.91
2019-03-03T14:48:43.080Z,78.20
2019-03-03T14:51:14.762Z,78.16
2019-03-03T14:53:46.343Z,77.79
2019-03-03T14:56:18.261Z,77.94
2019-03-03T14:58:49.975Z,78.56
2019-03-03T15:01:21.664Z,78.03
2019-03-03T15:03:53.757Z,78.49
2019-03-03T15:06:25.577Z,80.32
2019-03-03T15:08:57.128Z,80.32
2019-03-03T15:11:28.781Z,81.70
2019-03-03T15:14:00.363Z,79.37
2019-03-03T15:16:31.810Z,79.50
2019-03-03T15:19:03.874Z,79.50
2019-03-03T15:21:35.696Z,83.48
2019-03-03T15:24:07.299Z,83.48
2019-03-03T15:26:39.326Z,86.38
2019-03-03T15:29:11.002Z,87.29
2019-03-03T15:31:42.779Z,87.29
2019-03-03T15:34:14.305Z,87.91
2019-03-03T15:36:45.945Z,88.33
2019-03-03T15:39:17.616Z,88.14
2019-03-03T15:41:49.079Z,88.68
2019-03-03T15:44:20.760Z,88.94
2019-03-03T15:46:52.653Z,88.92
2019-03-03T15:49:24.844Z,89.31
2019-03-03T15:51:56.633Z,88.86
2019-03-03T15:54:28.477Z,88.86
2019-03-03T15:57:00.378Z,89.51
2019-03-03T15:59:32.340Z,89.51
2019-03-03T16:02:04.484Z,89.68
2019-03-03T16:04:38.337Z,89.87
2019-03-03T16:07:09.884Z,89.87
2019-03-03T16:09:41.779Z,90.39
2019-03-03T16:12:13.504Z,90.39
2019-03-03T16:14:45.264Z,91.21
2019-03-03T16:17:18.645Z,91.61
2019-03-03T16:19:51.196Z,91.61
2019-03-03T16:22:23.123Z,91.63
2019-03-03T16:24:54.924Z,91.74
2019-03-03T16:27:26.372Z,92.40
2019-03-03T16:29:58.247Z,92.51
2019-03-03T16:32:29.704Z,92.47
2019-03-03T16:35:01.271Z,92.02
2019-03-03T16:37:32.703Z,92.02
2019-03-03T16:40:04.471Z,91.82
2019-03-03T16:42:54.502Z,91.52
2019-03-03T16:45:26.385Z,91.52
2019-03-03T16:47:58.353Z,91.90
2019-03-03T16:50:31.675Z,92.93
2019-03-03T16:53:03.787Z,92.93
2019-03-03T16:55:35.787Z,93.56
2019-03-03T16:58:07.646Z,93.56
2019-03-03T17:00:39.413Z,93.98
2019-03-03T17:03:11.107Z,93.29
2019-03-03T17:05:42.830Z,93.80
2019-03-03T17:08:14.594Z,93.80
2019-03-03T17:10:46.400Z,93.63
2019-03-03T17:13:18.099Z,93.63
2019-03-03T17:15:49.545Z,93.19
2019-03-03T17:18:21.337Z,93.69
2019-03-03T17:20:52.872Z,93.69
2019-03-03T17:23:24.549Z,93.79
2019-03-03T17:25:56.243Z,92.86
2019-03-03T17:28:27.948Z,92.86
2019-03-03T17:31:00.729Z,93.54
2019-03-03T17:33:32.410Z,93.54
2019-03-03T17:36:04.083Z,93.35
2019-03-03T17:38:35.869Z,94.77
2019-03-03T17:41:09.213Z,94.77
2019-03-03T17:43:40.608Z,94.20
2019-03-03T17:46:17.850Z,94.20
2019-03-03T17:48:49.524Z,94.07
2019-03-03T17:51:21.034Z,94.16
2019-03-03T17:53:52.603Z,94.34
2019-03-03T17:56:24.047Z,94.29
2019-03-03T17:58:56.637Z,94.29
2019-03-03T18:01:28.204Z,94.22
2019-03-03T18:03:59.854Z,94.03
2019-03-03T18:06:38.602Z,94.04
2019-03-03T18:09:05.916Z,94.04
2019-03-03T18:11:38.833Z,94.78
2019-03-03T18:14:10.263Z,94.78
2019-03-03T18:16:41.864Z,94.26
2019-03-03T18:19:13.749Z,94.69
2019-03-03T18:21:45.419Z,94.49
2019-03-03T18:24:16.961Z,94.49
2019-03-03T18:26:48.667Z,94.86
2019-03-03T18:29:20.143Z,94.86
2019-03-03T18:31:54.436Z,94.00
2019-03-03T18:34:26.373Z,94.00
2019-03-03T18:36:57.891Z,94.57
2019-03-03T18:39:30.160Z,93.45
2019-03-03T18:42:01.649Z,93.45
2019-03-03T18:44:34.727Z,94.45
2019-03-03T18:47:06.194Z,94.45
2019-03-03T18:49:38.143Z,94.84
2019-03-03T18:52:10.342Z,94.84
2019-03-03T18:54:42.040Z,94.28
2019-03-03T18:57:13.752Z,94.32
2019-03-03T18:59:45.466Z,95.06
2019-03-03T19:02:17.584Z,95.06
2019-03-03T19:04:49.836Z,94.91
2019-03-03T19:07:21.434Z,94.91
2019-03-03T19:09:53.265Z,95.18
2019-03-03T19:12:24.729Z,95.18
2019-03-03T19:14:56.658Z,95.41
2019-03-03T19:17:28.299Z,95.39
2019-03-03T19:20:00.229Z,95.39
2019-03-03T19:22:31.939Z,94.89
2019-03-03T19:25:03.628Z,95.18
2019-03-03T19:27:35.350Z,94.62
2019-03-03T19:30:08.937Z,95.23
2019-03-03T19:32:40.860Z,95.23
2019-03-03T19:35:12.992Z,95.64
2019-03-03T19:37:44.793Z,94.80
2019-03-03T19:40:17.044Z,94.79
2019-03-03T19:42:48.900Z,94.54
2019-03-03T19:45:26.008Z,94.54
2019-03-03T19:47:58.017Z,94.89
2019-03-03T19:50:29.682Z,94.84
2019-03-03T19:53:01.477Z,94.72
2019-03-03T19:55:33.394Z,94.72
2019-03-03T19:58:05.312Z,94.93
2019-03-03T20:00:39.035Z,94.93
2019-03-03T20:03:10.809Z,94.46
2019-03-03T20:05:42.371Z,94.79
2019-03-03T20:08:14.372Z,94.77
2019-03-03T20:10:46.809Z,94.77
2019-03-03T20:13:18.563Z,94.97
2019-03-03T20:15:50.349Z,94.98
2019-03-03T20:18:21.959Z,94.94
2019-03-03T20:20:53.391Z,96.15
2019-03-03T20:23:25.209Z,96.15
2019-03-03T20:25:56.748Z,96.49
2019-03-03T20:28:28.546Z,95.77
2019-03-03T20:31:01.802Z,95.77
2019-03-03T20:33:33.692Z,96.27
2019-03-03T20:36:05.090Z,96.85
2019-03-03T20:38:36.794Z,96.85
2019-03-03T20:41:08.293Z,96.67
2019-03-03T20:43:39.813Z,96.03
2019-03-03T20:46:11.507Z,96.03
2019-03-03T20:48:43.391Z,95.49
2019-03-03T20:51:14.855Z,95.06
2019-03-03T20:53:46.475Z,94.97
2019-03-03T20:56:18.297Z,95.97
2019-03-03T20:58:49.777Z,95.02
2019-03-03T21:01:22.336Z,95.02
2019-03-03T21:03:54.049Z,94.99
2019-03-03T21:06:25.524Z,94.52
2019-03-03T21:08:57.469Z,95.28
2019-03-03T21:11:29.110Z,95.26
2019-03-03T21:14:01.248Z,95.26
2019-03-03T21:16:32.933Z,95.47
2019-03-03T21:19:04.777Z,95.98
2019-03-03T21:21:36.399Z,94.85
2019-03-03T21:24:08.425Z,94.85
2019-03-03T21:26:40.037Z,94.97
2019-03-03T21:29:11.967Z,94.19
2019-03-03T21:31:43.703Z,94.19
2019-03-03T21:34:15.560Z,94.37
2019-03-03T21:36:47.055Z,94.37
2019-03-03T21:39:18.814Z,94.90
2019-03-03T21:41:50.810Z,95.05
2019-03-03T21:44:22.317Z,95.23
2019-03-03T21:46:54.257Z,94.95
2019-03-03T21:49:25.853Z,95.49
2019-03-03T21:51:57.644Z,96.08
2019-03-03T21:54:29.508Z,96.08
2019-03-03T21:57:01.352Z,95.41
2019-03-03T21:59:32.813Z,95.41
2019-03-03T22:02:04.888Z,95.00
2019-03-03T22:04:36.489Z,94.98
2019-03-03T22:07:08.381Z,95.85
2019-03-03T22:09:40.148Z,95.54
2019-03-03T22:12:11.654Z,95.54
2019-03-03T22:14:43.592Z,95.50
2019-03-03T22:17:15.391Z,95.50
2019-03-03T22:19:47.015Z,95.25
2019-03-03T22:22:18.426Z,95.14
2019-03-03T22:24:50.652Z,95.74
2019-03-03T22:27:22.335Z,96.57
2019-03-03T22:29:53.842Z,96.05
2019-03-03T22:32:25.503Z,95.95
2019-03-03T22:34:57.200Z,95.84
2019-03-03T22:37:28.878Z,95.84
2019-03-03T22:40:00.317Z,96.13
2019-03-03T22:42:31.834Z,95.67
2019-03-03T22:45:03.538Z,95.44
2019-03-03T22:47:35.378Z,95.44
2019-03-03T22:50:06.970Z,95.28
2019-03-03T22:52:38.910Z,94.92
2019-03-03T22:55:11.227Z,95.20
2019-03-03T22:57:42.867Z,95.52
2019-03-03T23:00:50.829Z,95.58
2019-03-03T23:03:43.185Z,95.45
2019-03-03T23:06:26.148Z,95.75
2019-03-03T23:09:46.355Z,95.64
2019-03-03T23:12:51.864Z,95.42
2019-03-03T23:16:02.833Z,95.25
2019-03-03T23:19:19.503Z,95.25
2019-03-03T23:22:31.218Z,95.96
2019-03-03T23:25:57.392Z,95.96
2019-03-03T23:28:31.328Z,95.87
2019-03-03T23:31:03.004Z,95.64
2019-03-03T23:33:34.505Z,95.64
2019-03-03T23:36:06.343Z,95.63
2019-03-03T23:38:37.808Z,95.54
2019-03-03T23:41:09.429Z,95.34
2019-03-03T23:43:41.023Z,95.13
2019-03-03T23:46:12.681Z,95.33
2019-03-03T23:48:44.718Z,94.98
2019-03-03T23:51:17.173Z,93.71
2019-03-03T23:53:49.099Z,93.71
2019-03-03T23:56:20.870Z,93.50
2019-03-03T23:58:52.595Z,93.60
